sensor_id;sensor_type;location;lat;lon;timestamp;temperature;humidity
27667;DHT22;15074;50.940;5.282;2023-04-03T05:59:31;3.50;99.90
27667;DHT22;15074;50.940;5.282;2023-04-03T06:01:56;4.80;99.90
27667;DHT22;15074;50.940;5.282;2023-04-03T06:04:22;5.90;99.90
27667;DHT22;15074;50.940;5.282;2023-04-03T06:06:49;6.20;99.90
27667;DHT22;15074;50.940;5.282;2023-04-03T06:09:18;7.00;99.90
27667;DHT22;15074;50.940;5.282;2023-04-03T06:11:44;7.50;99.90
27667;DHT22;15074;50.940;5.282;2023-04-03T06:14:11;8.20;99.90
27667;DHT22;15074;50.940;5.282;2023-04-03T06:16:37;8.40;99.90
27667;DHT22;15074;50.940;5.282;2023-04-03T06:19:03;8.60;99.90
27667;DHT22;15074;50.940;5.282;2023-04-03T06:21:29;9.30;99.90
27667;DHT22;15074;50.940;5.282;2023-04-03T06:23:55;9.00;99.90
27667;DHT22;15074;50.940;5.282;2023-04-03T06:26:21;9.70;99.90
27667;DHT22;15074;50.940;5.282;2023-04-03T06:28:47;10.20;99.90
27667;DHT22;15074;50.940;5.282;2023-04-03T06:31:13;10.10;99.90
27667;DHT22;15074;50.940;5.282;2023-04-03T06:33:39;10.00;99.90
27667;DHT22;15074;50.940;5.282;2023-04-03T06:36:05;10.40;99.90
27667;DHT22;15074;50.940;5.282;2023-04-03T06:38:33;11.00;99.90
27667;DHT22;15074;50.940;5.282;2023-04-03T06:40:59;11.60;99.90
27667;DHT22;15074;50.940;5.282;2023-04-03T06:43:25;11.70;99.90
27667;DHT22;15074;50.940;5.282;2023-04-03T06:45:51;12.00;99.90
27667;DHT22;15074;50.940;5.282;2023-04-03T06:48:17;11.70;99.90
27667;DHT22;15074;50.940;5.282;2023-04-03T06:50:43;12.00;99.90
27667;DHT22;15074;50.940;5.282;2023-04-03T06:53:09;12.20;99.90
27667;DHT22;15074;50.940;5.282;2023-04-03T06:55:35;12.40;99.90
27667;DHT22;15074;50.940;5.282;2023-04-03T06:58:01;13.00;99.90
27667;DHT22;15074;50.940;5.282;2023-04-03T07:00:27;13.50;99.90
27667;DHT22;15074;50.940;5.282;2023-04-03T07:02:53;13.20;99.90
27667;DHT22;15074;50.940;5.282;2023-04-03T07:05:19;12.70;99.90
27667;DHT22;15074;50.940;5.282;2023-04-03T07:07:44;13.00;99.90
27667;DHT22;15074;50.940;5.282;2023-04-03T07:10:10;13.70;99.90
27667;DHT22;15074;50.940;5.282;2023-04-03T07:12:37;13.20;99.90
27667;DHT22;15074;50.940;5.282;2023-04-03T07:15:04;13.00;99.90
27667;DHT22;15074;50.940;5.282;2023-04-03T07:17:30;12.50;99.90
27667;DHT22;15074;50.940;5.282;2023-04-03T07:19:56;11.90;99.90
27667;DHT22;15074;50.940;5.282;2023-04-03T07:22:22;12.20;99.90
27667;DHT22;15074;50.940;5.282;2023-04-03T07:24:48;12.70;99.90
27667;DHT22;15074;50.940;5.282;2023-04-03T07:27:14;13.90;99.90
27667;DHT22;15074;50.940;5.282;2023-04-03T07:29:39;15.00;99.90
27667;DHT22;15074;50.940;5.282;2023-04-03T07:32:05;15.40;99.90
27667;DHT22;15074;50.940;5.282;2023-04-03T07:34:32;15.20;99.80
27667;DHT22;15074;50.940;5.282;2023-04-03T07:36:58;14.70;99.90
27667;DHT22;15074;50.940;5.282;2023-04-03T07:39:24;14.60;99.90
27667;DHT22;15074;50.940;5.282;2023-04-03T07:41:50;14.80;99.90
27667;DHT22;15074;50.940;5.282;2023-04-03T07:44:17;14.00;99.90
27667;DHT22;15074;50.940;5.282;2023-04-03T07:46:42;14.40;99.90
27667;DHT22;15074;50.940;5.282;2023-04-03T07:49:08;15.50;98.70
27667;DHT22;15074;50.940;5.282;2023-04-03T07:51:34;15.60;98.20
27667;DHT22;15074;50.940;5.282;2023-04-03T07:54:00;15.50;97.20
27667;DHT22;15074;50.940;5.282;2023-04-03T07:56:26;15.60;97.70
27667;DHT22;15074;50.940;5.282;2023-04-03T07:58:52;15.60;97.50
27667;DHT22;15074;50.940;5.282;2023-04-03T08:01:17;15.60;96.50
27667;DHT22;15074;50.940;5.282;2023-04-03T08:03:43;16.10;96.30
27667;DHT22;15074;50.940;5.282;2023-04-03T08:06:09;16.40;96.30
27667;DHT22;15074;50.940;5.282;2023-04-03T08:08:35;17.00;94.60
27667;DHT22;15074;50.940;5.282;2023-04-03T08:11:02;16.60;94.70
27667;DHT22;15074;50.940;5.282;2023-04-03T08:13:28;15.90;94.10
27667;DHT22;15074;50.940;5.282;2023-04-03T08:15:55;15.90;94.80
27667;DHT22;15074;50.940;5.282;2023-04-03T08:18:23;14.60;96.40
27667;DHT22;15074;50.940;5.282;2023-04-03T08:20:50;14.40;96.30
27667;DHT22;15074;50.940;5.282;2023-04-03T08:23:16;13.40;97.80
27667;DHT22;15074;50.940;5.282;2023-04-03T08:25:43;12.20;99.30
27667;DHT22;15074;50.940;5.282;2023-04-03T08:28:12;11.70;99.90
27667;DHT22;15074;50.940;5.282;2023-04-03T08:30:41;12.70;99.90
27667;DHT22;15074;50.940;5.282;2023-04-03T08:33:08;13.90;99.90
27667;DHT22;15074;50.940;5.282;2023-04-03T08:35:38;14.90;98.00
27667;DHT22;15074;50.940;5.282;2023-04-03T08:38:04;16.00;95.30
27667;DHT22;15074;50.940;5.282;2023-04-03T08:40:30;16.90;94.10
27667;DHT22;15074;50.940;5.282;2023-04-03T08:48:26;18.00;92.10
27667;DHT22;15074;50.940;5.282;2023-04-03T08:51:02;16.20;90.30
27667;DHT22;15074;50.940;5.282;2023-04-03T08:53:33;14.90;93.20
27667;DHT22;15074;50.940;5.282;2023-04-03T08:56:05;15.70;94.70
27667;DHT22;15074;50.940;5.282;2023-04-03T08:58:52;16.80;92.90
27667;DHT22;15074;50.940;5.282;2023-04-03T09:03:50;16.80;91.60
27667;DHT22;15074;50.940;5.282;2023-04-03T09:06:26;16.80;91.40
27667;DHT22;15074;50.940;5.282;2023-04-03T09:17:21;15.30;90.60
27667;DHT22;15074;50.940;5.282;2023-04-03T09:22:43;14.60;93.20
27667;DHT22;15074;50.940;5.282;2023-04-03T09:25:31;16.30;91.00
27667;DHT22;15074;50.940;5.282;2023-04-03T09:27:59;15.00;90.20
27667;DHT22;15074;50.940;5.282;2023-04-03T09:30:26;14.10;92.50
27667;DHT22;15074;50.940;5.282;2023-04-03T09:32:55;13.80;92.10
27667;DHT22;15074;50.940;5.282;2023-04-03T09:37:52;16.40;90.20
27667;DHT22;15074;50.940;5.282;2023-04-03T09:40:32;17.40;88.50
27667;DHT22;15074;50.940;5.282;2023-04-03T09:43:20;18.40;84.40
27667;DHT22;15074;50.940;5.282;2023-04-03T09:45:47;17.10;86.80
27667;DHT22;15074;50.940;5.282;2023-04-03T09:53:42;19.00;81.30
27667;DHT22;15074;50.940;5.282;2023-04-03T09:58:45;18.50;75.70
27667;DHT22;15074;50.940;5.282;2023-04-03T10:04:15;18.00;75.60
27667;DHT22;15074;50.940;5.282;2023-04-03T10:06:52;17.70;75.30
27667;DHT22;15074;50.940;5.282;2023-04-03T10:09:25;18.20;77.70
27667;DHT22;15074;50.940;5.282;2023-04-03T10:12:11;18.30;77.20
27667;DHT22;15074;50.940;5.282;2023-04-03T10:17:37;17.50;73.70
27667;DHT22;15074;50.940;5.282;2023-04-03T10:28:41;18.50;70.60
27667;DHT22;15074;50.940;5.282;2023-04-03T10:31:32;18.90;67.80
27667;DHT22;15074;50.940;5.282;2023-04-03T10:34:10;17.70;70.70
27667;DHT22;15074;50.940;5.282;2023-04-03T10:36:57;17.70;70.40
27667;DHT22;15074;50.940;5.282;2023-04-03T10:45:14;16.60;68.10
27667;DHT22;15074;50.940;5.282;2023-04-03T10:56:39;15.40;68.90
27667;DHT22;15074;50.940;5.282;2023-04-03T10:59:25;16.20;67.20
27667;DHT22;15074;50.940;5.282;2023-04-03T11:02:00;16.60;66.60
27667;DHT22;15074;50.940;5.282;2023-04-03T11:04:31;17.30;63.10
27667;DHT22;15074;50.940;5.282;2023-04-03T11:07:13;18.10;62.10
27667;DHT22;15074;50.940;5.282;2023-04-03T11:09:45;17.90;57.10
27667;DHT22;15074;50.940;5.282;2023-04-03T11:12:26;17.10;56.80
27667;DHT22;15074;50.940;5.282;2023-04-03T11:14:55;17.50;54.70
27667;DHT22;15074;50.940;5.282;2023-04-03T11:17:28;17.20;56.10
27667;DHT22;15074;50.940;5.282;2023-04-03T11:22:42;17.50;55.80
27667;DHT22;15074;50.940;5.282;2023-04-03T11:27:55;18.40;56.80
27667;DHT22;15074;50.940;5.282;2023-04-03T11:30:23;19.20;56.10
27667;DHT22;15074;50.940;5.282;2023-04-03T11:33:13;19.20;56.60
27667;DHT22;15074;50.940;5.282;2023-04-03T11:35:51;18.50;55.80
27667;DHT22;15074;50.940;5.282;2023-04-03T11:38:23;16.80;55.80
27667;DHT22;15074;50.940;5.282;2023-04-03T11:40:53;17.30;56.10
27667;DHT22;15074;50.940;5.282;2023-04-03T11:43:30;18.10;55.00
27667;DHT22;15074;50.940;5.282;2023-04-03T11:46:01;17.90;55.20
27667;DHT22;15074;50.940;5.282;2023-04-03T11:53:43;14.10;58.70
27667;DHT22;15074;50.940;5.282;2023-04-03T12:04:14;14.20;62.70
27667;DHT22;15074;50.940;5.282;2023-04-03T12:06:42;13.80;64.50
27667;DHT22;15074;50.940;5.282;2023-04-03T12:09:26;15.20;64.70
27667;DHT22;15074;50.940;5.282;2023-04-03T12:11:53;15.70;58.40
27667;DHT22;15074;50.940;5.282;2023-04-03T12:14:22;14.90;61.00
27667;DHT22;15074;50.940;5.282;2023-04-03T12:16:49;14.70;62.10
27667;DHT22;15074;50.940;5.282;2023-04-03T12:19:38;13.90;64.40
27667;DHT22;15074;50.940;5.282;2023-04-03T12:22:14;15.50;61.90
27667;DHT22;15074;50.940;5.282;2023-04-03T12:24:43;15.50;58.90
27667;DHT22;15074;50.940;5.282;2023-04-03T12:27:14;13.40;63.60
27667;DHT22;15074;50.940;5.282;2023-04-03T12:29:51;13.80;64.10
27667;DHT22;15074;50.940;5.282;2023-04-03T12:32:58;14.00;63.30
27667;DHT22;15074;50.940;5.282;2023-04-03T12:35:37;14.70;64.80
27667;DHT22;15074;50.940;5.282;2023-04-03T12:46:51;17.60;60.20
27667;DHT22;15074;50.940;5.282;2023-04-03T12:51:48;14.90;65.50
27667;DHT22;15074;50.940;5.282;2023-04-03T12:56:45;15.70;62.90
27667;DHT22;15074;50.940;5.282;2023-04-03T12:59:23;14.40;64.70
27667;DHT22;15074;50.940;5.282;2023-04-03T13:01:59;12.90;66.30
27667;DHT22;15074;50.940;5.282;2023-04-03T13:04:28;12.80;68.10
27667;DHT22;15074;50.940;5.282;2023-04-03T13:06:54;13.80;68.00
27667;DHT22;15074;50.940;5.282;2023-04-03T13:09:24;14.60;65.00
27667;DHT22;15074;50.940;5.282;2023-04-03T13:12:13;13.30;64.90
27667;DHT22;15074;50.940;5.282;2023-04-03T13:14:39;14.10;68.30
27667;DHT22;15074;50.940;5.282;2023-04-03T13:17:16;15.40;65.40
27667;DHT22;15074;50.940;5.282;2023-04-03T13:19:44;16.10;62.70
27667;DHT22;15074;50.940;5.282;2023-04-03T13:22:27;16.70;64.10
27667;DHT22;15074;50.940;5.282;2023-04-03T13:24:55;17.10;60.60
27667;DHT22;15074;50.940;5.282;2023-04-03T13:27:23;17.40;60.20
27667;DHT22;15074;50.940;5.282;2023-04-03T13:29:51;16.00;59.30
27667;DHT22;15074;50.940;5.282;2023-04-03T13:32:23;14.20;64.00
27667;DHT22;15074;50.940;5.282;2023-04-03T13:34:49;14.50;62.70
27667;DHT22;15074;50.940;5.282;2023-04-03T13:37:31;14.50;64.30
27667;DHT22;15074;50.940;5.282;2023-04-03T13:42:36;14.50;65.60
27667;DHT22;15074;50.940;5.282;2023-04-03T13:45:24;14.60;64.10
27667;DHT22;15074;50.940;5.282;2023-04-03T13:48:06;14.60;64.50
27667;DHT22;15074;50.940;5.282;2023-04-03T13:50:32;15.30;65.90
27667;DHT22;15074;50.940;5.282;2023-04-03T13:53:10;16.00;65.90
27667;DHT22;15074;50.940;5.282;2023-04-03T13:55:51;16.00;65.90
27667;DHT22;15074;50.940;5.282;2023-04-03T13:58:27;16.10;64.70
27667;DHT22;15074;50.940;5.282;2023-04-03T14:01:17;16.40;64.20
27667;DHT22;15074;50.940;5.282;2023-04-03T14:03:53;16.70;63.30
27667;DHT22;15074;50.940;5.282;2023-04-03T14:06:19;16.70;62.30
27667;DHT22;15074;50.940;5.282;2023-04-03T14:08:45;16.00;62.30
27667;DHT22;15074;50.940;5.282;2023-04-03T14:11:17;15.80;64.20
27667;DHT22;15074;50.940;5.282;2023-04-03T14:13:45;16.10;64.70
27667;DHT22;15074;50.940;5.282;2023-04-03T14:16:18;16.10;63.40
27667;DHT22;15074;50.940;5.282;2023-04-03T14:18:45;14.50;65.10
27667;DHT22;15074;50.940;5.282;2023-04-03T14:21:13;13.90;69.30
27667;DHT22;15074;50.940;5.282;2023-04-03T14:23:39;14.70;68.80
27667;DHT22;15074;50.940;5.282;2023-04-03T14:26:19;15.00;67.50
27667;DHT22;15074;50.940;5.282;2023-04-03T14:28:49;14.90;67.00
27667;DHT22;15074;50.940;5.282;2023-04-03T14:31:16;15.20;65.70
27667;DHT22;15074;50.940;5.282;2023-04-03T14:33:43;15.30;65.00
27667;DHT22;15074;50.940;5.282;2023-04-03T14:36:20;15.40;65.70
27667;DHT22;15074;50.940;5.282;2023-04-03T14:38:47;14.80;65.90
27667;DHT22;15074;50.940;5.282;2023-04-03T14:41:16;14.80;66.00
27667;DHT22;15074;50.940;5.282;2023-04-03T14:43:43;15.00;65.80
27667;DHT22;15074;50.940;5.282;2023-04-03T14:46:19;15.10;66.00
27667;DHT22;15074;50.940;5.282;2023-04-03T14:48:46;14.60;67.70
27667;DHT22;15074;50.940;5.282;2023-04-03T14:51:13;14.10;69.90
27667;DHT22;15074;50.940;5.282;2023-04-03T14:53:40;13.50;71.20
27667;DHT22;15074;50.940;5.282;2023-04-03T14:56:23;13.40;72.10
27667;DHT22;15074;50.940;5.282;2023-04-03T14:58:55;13.20;71.70
27667;DHT22;15074;50.940;5.282;2023-04-03T15:01:22;12.90;72.00
27667;DHT22;15074;50.940;5.282;2023-04-03T15:03:48;12.70;73.80
27667;DHT22;15074;50.940;5.282;2023-04-03T15:06:15;12.80;74.40
27667;DHT22;15074;50.940;5.282;2023-04-03T15:08:42;12.60;75.00
27667;DHT22;15074;50.940;5.282;2023-04-03T15:11:11;12.40;76.10
27667;DHT22;15074;50.940;5.282;2023-04-03T15:13:38;12.20;75.70
27667;DHT22;15074;50.940;5.282;2023-04-03T15:16:04;12.30;76.60
27667;DHT22;15074;50.940;5.282;2023-04-03T15:18:35;12.40;74.50
27667;DHT22;15074;50.940;5.282;2023-04-03T15:21:03;12.30;74.10
27667;DHT22;15074;50.940;5.282;2023-04-03T15:23:28;12.10;74.80
27667;DHT22;15074;50.940;5.282;2023-04-03T15:25:55;12.10;76.70
27667;DHT22;15074;50.940;5.282;2023-04-03T15:28:31;12.20;76.40
27667;DHT22;15074;50.940;5.282;2023-04-03T15:30:58;12.20;74.70
27667;DHT22;15074;50.940;5.282;2023-04-03T15:33:24;12.20;75.60
27667;DHT22;15074;50.940;5.282;2023-04-03T15:35:50;12.20;75.30
27667;DHT22;15074;50.940;5.282;2023-04-03T15:38:16;12.00;74.00
27667;DHT22;15074;50.940;5.282;2023-04-03T15:40:41;11.90;74.70
27667;DHT22;15074;50.940;5.282;2023-04-03T15:43:09;11.80;74.10
27667;DHT22;15074;50.940;5.282;2023-04-03T15:45:36;11.80;76.00
27667;DHT22;15074;50.940;5.282;2023-04-03T15:48:03;11.80;76.60
27667;DHT22;15074;50.940;5.282;2023-04-03T15:50:30;11.70;76.40
27667;DHT22;15074;50.940;5.282;2023-04-03T15:52:56;11.80;77.50
27667;DHT22;15074;50.940;5.282;2023-04-03T15:55:25;11.70;75.70
27667;DHT22;15074;50.940;5.282;2023-04-03T15:57:52;11.70;75.50
27667;DHT22;15074;50.940;5.282;2023-04-03T16:00:18;11.60;76.30
27667;DHT22;15074;50.940;5.282;2023-04-03T16:02:45;11.50;75.80
27667;DHT22;15074;50.940;5.282;2023-04-03T16:05:12;11.20;74.70
27667;DHT22;15074;50.940;5.282;2023-04-03T16:07:39;11.20;76.30
27667;DHT22;15074;50.940;5.282;2023-04-03T16:10:06;11.10;76.00
27667;DHT22;15074;50.940;5.282;2023-04-03T16:12:32;11.10;76.90
27667;DHT22;15074;50.940;5.282;2023-04-03T16:14:58;11.00;77.60
27667;DHT22;15074;50.940;5.282;2023-04-03T16:17:23;11.10;78.20
27667;DHT22;15074;50.940;5.282;2023-04-03T16:19:49;11.10;77.20
27667;DHT22;15074;50.940;5.282;2023-04-03T16:22:16;11.10;76.30
27667;DHT22;15074;50.940;5.282;2023-04-03T16:24:41;11.10;76.30
27667;DHT22;15074;50.940;5.282;2023-04-03T16:27:07;11.00;76.50
27667;DHT22;15074;50.940;5.282;2023-04-03T16:29:33;10.90;75.80
27667;DHT22;15074;50.940;5.282;2023-04-03T16:31:59;10.90;76.60
27667;DHT22;15074;50.940;5.282;2023-04-03T16:34:24;11.00;76.10
27667;DHT22;15074;50.940;5.282;2023-04-03T16:36:51;10.80;76.00
27667;DHT22;15074;50.940;5.282;2023-04-03T16:39:18;10.70;76.70
27667;DHT22;15074;50.940;5.282;2023-04-03T16:41:43;10.80;77.10
27667;DHT22;15074;50.940;5.282;2023-04-03T16:44:10;10.70;76.10
27667;DHT22;15074;50.940;5.282;2023-04-03T16:46:36;10.60;77.10
27667;DHT22;15074;50.940;5.282;2023-04-03T16:49:02;10.50;79.20
27667;DHT22;15074;50.940;5.282;2023-04-03T16:51:28;10.50;77.60
27667;DHT22;15074;50.940;5.282;2023-04-03T16:53:54;10.40;76.60
27667;DHT22;15074;50.940;5.282;2023-04-03T16:56:20;10.40;76.70
27667;DHT22;15074;50.940;5.282;2023-04-03T16:58:47;10.30;78.00
27667;DHT22;15074;50.940;5.282;2023-04-03T17:01:15;10.30;78.10
27667;DHT22;15074;50.940;5.282;2023-04-03T17:03:41;10.20;77.70
27667;DHT22;15074;50.940;5.282;2023-04-03T17:06:07;10.10;77.00
27667;DHT22;15074;50.940;5.282;2023-04-03T17:08:34;10.00;76.90
27667;DHT22;15074;50.940;5.282;2023-04-03T17:10:59;9.90;77.00
27667;DHT22;15074;50.940;5.282;2023-04-03T17:13:25;9.90;77.50
27667;DHT22;15074;50.940;5.282;2023-04-03T17:15:56;9.90;78.40
27667;DHT22;15074;50.940;5.282;2023-04-03T17:18:22;9.70;78.30
27667;DHT22;15074;50.940;5.282;2023-04-03T17:20:48;9.80;79.50
27667;DHT22;15074;50.940;5.282;2023-04-03T17:23:13;9.80;80.60
27667;DHT22;15074;50.940;5.282;2023-04-03T17:25:39;9.80;81.50
27667;DHT22;15074;50.940;5.282;2023-04-03T17:28:05;9.80;82.20
27667;DHT22;15074;50.940;5.282;2023-04-03T17:30:30;9.80;83.20
27667;DHT22;15074;50.940;5.282;2023-04-03T17:32:56;9.70;81.70
27667;DHT22;15074;50.940;5.282;2023-04-03T17:35:22;9.50;83.00
27667;DHT22;15074;50.940;5.282;2023-04-03T17:37:48;9.50;82.90
27667;DHT22;15074;50.940;5.282;2023-04-03T17:40:15;9.50;81.90
27667;DHT22;15074;50.940;5.282;2023-04-03T17:42:43;9.50;82.80
27667;DHT22;15074;50.940;5.282;2023-04-03T17:45:09;9.40;83.50
27667;DHT22;15074;50.940;5.282;2023-04-03T17:47:35;9.40;82.80
27667;DHT22;15074;50.940;5.282;2023-04-03T17:50:00;9.20;82.90
27667;DHT22;15074;50.940;5.282;2023-04-03T17:52:26;9.20;83.90
27667;DHT22;15074;50.940;5.282;2023-04-03T17:54:53;9.10;84.90
27667;DHT22;15074;50.940;5.282;2023-04-03T17:57:19;9.10;85.60
27667;DHT22;15074;50.940;5.282;2023-04-03T17:59:45;9.00;86.80
27667;DHT22;15074;50.940;5.282;2023-04-03T18:02:10;8.90;87.30
27667;DHT22;15074;50.940;5.282;2023-04-03T18:04:36;8.80;87.80
27667;DHT22;15074;50.940;5.282;2023-04-03T18:07:02;8.80;87.70
27667;DHT22;15074;50.940;5.282;2023-04-03T18:09:31;8.70;88.50
27667;DHT22;15074;50.940;5.282;2023-04-03T18:12:00;8.70;88.80
27667;DHT22;15074;50.940;5.282;2023-04-03T18:14:27;8.60;88.70
27667;DHT22;15074;50.940;5.282;2023-04-03T18:16:53;8.50;88.90
27667;DHT22;15074;50.940;5.282;2023-04-03T18:19:22;8.40;89.10
27667;DHT22;15074;50.940;5.282;2023-04-03T18:21:48;8.50;89.00
27667;DHT22;15074;50.940;5.282;2023-04-03T18:24:17;8.40;89.20
27667;DHT22;15074;50.940;5.282;2023-04-03T18:26:46;8.30;89.20
27667;DHT22;15074;50.940;5.282;2023-04-03T18:29:12;8.30;90.00
27667;DHT22;15074;50.940;5.282;2023-04-03T18:31:41;8.30;90.40
27667;DHT22;15074;50.940;5.282;2023-04-03T18:34:08;8.20;90.60
27667;DHT22;15074;50.940;5.282;2023-04-03T18:36:34;8.20;91.10
27667;DHT22;15074;50.940;5.282;2023-04-03T18:38:59;8.10;91.50
27667;DHT22;15074;50.940;5.282;2023-04-03T18:41:28;8.00;91.90
27667;DHT22;15074;50.940;5.282;2023-04-03T18:43:56;7.80;92.40
27667;DHT22;15074;50.940;5.282;2023-04-03T18:46:24;7.70;92.80
27667;DHT22;15074;50.940;5.282;2023-04-03T18:48:50;7.70;92.90
27667;DHT22;15074;50.940;5.282;2023-04-03T18:51:17;7.70;93.00
27667;DHT22;15074;50.940;5.282;2023-04-03T18:53:43;7.70;93.30
27667;DHT22;15074;50.940;5.282;2023-04-03T18:56:09;7.70;93.70
27667;DHT22;15074;50.940;5.282;2023-04-03T18:58:34;7.60;94.00
27667;DHT22;15074;50.940;5.282;2023-04-03T19:01:01;7.60;94.10
27667;DHT22;15074;50.940;5.282;2023-04-03T19:03:28;7.50;94.40
27667;DHT22;15074;50.940;5.282;2023-04-03T19:05:54;7.50;94.40
27667;DHT22;15074;50.940;5.282;2023-04-03T19:08:21;7.50;94.60
27667;DHT22;15074;50.940;5.282;2023-04-03T19:10:47;7.40;94.80
27667;DHT22;15074;50.940;5.282;2023-04-03T19:13:12;7.30;95.10
27667;DHT22;15074;50.940;5.282;2023-04-03T19:15:38;7.30;95.20
27667;DHT22;15074;50.940;5.282;2023-04-03T19:18:03;7.20;95.70
27667;DHT22;15074;50.940;5.282;2023-04-03T19:20:29;7.10;95.90
27667;DHT22;15074;50.940;5.282;2023-04-03T19:22:55;7.10;96.20
27667;DHT22;15074;50.940;5.282;2023-04-03T19:25:21;7.00;96.30
27667;DHT22;15074;50.940;5.282;2023-04-03T19:27:47;7.00;96.40
27667;DHT22;15074;50.940;5.282;2023-04-03T19:30:13;7.00;96.30
27667;DHT22;15074;50.940;5.282;2023-04-03T19:32:39;7.00;96.60
27667;DHT22;15074;50.940;5.282;2023-04-03T19:35:05;6.90;97.20
27667;DHT22;15074;50.940;5.282;2023-04-03T19:37:31;6.90;97.00
27667;DHT22;15074;50.940;5.282;2023-04-03T19:39:57;6.90;97.30
27667;DHT22;15074;50.940;5.282;2023-04-03T19:42:23;6.80;97.30
27667;DHT22;15074;50.940;5.282;2023-04-03T19:44:52;6.80;97.70
27667;DHT22;15074;50.940;5.282;2023-04-03T19:47:17;6.70;97.80
27667;DHT22;15074;50.940;5.282;2023-04-03T19:49:46;6.80;98.00
27667;DHT22;15074;50.940;5.282;2023-04-03T19:52:12;6.80;98.30
27667;DHT22;15074;50.940;5.282;2023-04-03T19:54:38;6.70;98.30
27667;DHT22;15074;50.940;5.282;2023-04-03T19:57:03;6.60;98.50
27667;DHT22;15074;50.940;5.282;2023-04-03T19:59:29;6.60;98.70
27667;DHT22;15074;50.940;5.282;2023-04-03T20:01:55;6.50;98.90
27667;DHT22;15074;50.940;5.282;2023-04-03T20:04:21;6.40;99.10
27667;DHT22;15074;50.940;5.282;2023-04-03T20:06:47;6.40;99.10
27667;DHT22;15074;50.940;5.282;2023-04-03T20:09:15;6.40;99.90
27667;DHT22;15074;50.940;5.282;2023-04-03T20:11:43;6.40;99.90
27667;DHT22;15074;50.940;5.282;2023-04-03T20:14:12;6.30;99.90
27667;DHT22;15074;50.940;5.282;2023-04-03T20:16:38;6.20;99.90
27667;DHT22;15074;50.940;5.282;2023-04-03T20:19:04;6.20;99.90
27667;DHT22;15074;50.940;5.282;2023-04-03T20:21:32;6.20;99.90
27667;DHT22;15074;50.940;5.282;2023-04-03T20:23:59;6.10;99.90
27667;DHT22;15074;50.940;5.282;2023-04-03T20:26:27;6.10;99.90
27667;DHT22;15074;50.940;5.282;2023-04-03T20:28:55;6.10;99.90
27667;DHT22;15074;50.940;5.282;2023-04-03T20:31:22;6.10;99.90
27667;DHT22;15074;50.940;5.282;2023-04-03T20:33:48;6.00;99.90
27667;DHT22;15074;50.940;5.282;2023-04-03T20:36:15;6.00;99.90
27667;DHT22;15074;50.940;5.282;2023-04-03T20:38:41;6.00;99.90
27667;DHT22;15074;50.940;5.282;2023-04-03T20:41:08;6.00;99.90
27667;DHT22;15074;50.940;5.282;2023-04-03T20:43:34;5.90;99.90
27667;DHT22;15074;50.940;5.282;2023-04-03T20:46:01;5.80;99.90
27667;DHT22;15074;50.940;5.282;2023-04-03T20:48:28;5.90;99.90
27667;DHT22;15074;50.940;5.282;2023-04-03T20:50:54;5.80;99.90
27667;DHT22;15074;50.940;5.282;2023-04-03T20:53:20;5.80;99.90
27667;DHT22;15074;50.940;5.282;2023-04-03T20:55:56;5.80;99.90
27667;DHT22;15074;50.940;5.282;2023-04-03T20:58:25;5.70;99.90
27667;DHT22;15074;50.940;5.282;2023-04-03T21:00:54;5.60;99.90
27667;DHT22;15074;50.940;5.282;2023-04-03T21:03:21;5.60;99.90
27667;DHT22;15074;50.940;5.282;2023-04-03T21:05:47;5.60;99.90
27667;DHT22;15074;50.940;5.282;2023-04-03T21:20:39;5.60;99.90
27667;DHT22;15074;50.940;5.282;2023-04-03T21:23:05;5.60;99.90
27667;DHT22;15074;50.940;5.282;2023-04-03T21:25:31;5.50;99.90
27667;DHT22;15074;50.940;5.282;2023-04-03T21:27:58;5.50;99.90
27667;DHT22;15074;50.940;5.282;2023-04-03T21:34:04;5.40;99.90
27667;DHT22;15074;50.940;5.282;2023-04-03T21:36:39;5.40;99.90
27667;DHT22;15074;50.940;5.282;2023-04-03T21:39:05;5.40;99.90
27667;DHT22;15074;50.940;5.282;2023-04-03T21:41:30;5.40;99.90
27667;DHT22;15074;50.940;5.282;2023-04-03T21:43:56;5.40;99.90
27667;DHT22;15074;50.940;5.282;2023-04-03T21:46:22;5.40;99.90
27667;DHT22;15074;50.940;5.282;2023-04-03T21:48:49;5.40;99.90
27667;DHT22;15074;50.940;5.282;2023-04-03T21:51:16;5.40;99.90
27667;DHT22;15074;50.940;5.282;2023-04-03T21:53:41;5.40;99.90
27667;DHT22;15074;50.940;5.282;2023-04-03T21:56:09;5.40;99.90
27667;DHT22;15074;50.940;5.282;2023-04-03T21:58:35;5.30;99.90
27667;DHT22;15074;50.940;5.282;2023-04-03T22:01:11;5.30;99.90
27667;DHT22;15074;50.940;5.282;2023-04-03T22:03:39;5.20;99.90
27667;DHT22;15074;50.940;5.282;2023-04-03T22:06:08;5.30;99.90
27667;DHT22;15074;50.940;5.282;2023-04-03T22:08:35;5.30;99.90
27667;DHT22;15074;50.940;5.282;2023-04-03T22:11:19;5.30;99.90
27667;DHT22;15074;50.940;5.282;2023-04-03T22:13:50;5.20;99.90
27667;DHT22;15074;50.940;5.282;2023-04-03T22:16:16;5.10;99.90
27667;DHT22;15074;50.940;5.282;2023-04-03T22:18:42;5.10;99.90
27667;DHT22;15074;50.940;5.282;2023-04-03T22:21:07;5.10;99.90
27667;DHT22;15074;50.940;5.282;2023-04-03T22:23:34;5.10;99.90
27667;DHT22;15074;50.940;5.282;2023-04-03T22:26:07;5.00;99.90
27667;DHT22;15074;50.940;5.282;2023-04-03T22:28:39;4.90;99.90
27667;DHT22;15074;50.940;5.282;2023-04-03T22:31:06;4.90;99.90
27667;DHT22;15074;50.940;5.282;2023-04-03T22:33:35;4.80;99.90
27667;DHT22;15074;50.940;5.282;2023-04-03T22:36:02;4.70;99.90
27667;DHT22;15074;50.940;5.282;2023-04-03T22:38:28;4.70;99.90
27667;DHT22;15074;50.940;5.282;2023-04-03T22:40:59;4.60;99.90
27667;DHT22;15074;50.940;5.282;2023-04-03T22:43:29;4.70;99.90
27667;DHT22;15074;50.940;5.282;2023-04-03T22:45:55;4.70;99.90
27667;DHT22;15074;50.940;5.282;2023-04-03T22:48:22;4.60;99.90
27667;DHT22;15074;50.940;5.282;2023-04-03T22:50:49;4.50;99.90
27667;DHT22;15074;50.940;5.282;2023-04-03T22:53:16;4.40;99.90
27667;DHT22;15074;50.940;5.282;2023-04-03T22:56:07;4.40;99.90
27667;DHT22;15074;50.940;5.282;2023-04-03T22:58:33;4.40;99.90
27667;DHT22;15074;50.940;5.282;2023-04-03T23:04:03;4.30;99.90
27667;DHT22;15074;50.940;5.282;2023-04-03T23:06:29;4.40;99.90
27667;DHT22;15074;50.940;5.282;2023-04-03T23:26:24;4.30;99.90
27667;DHT22;15074;50.940;5.282;2023-04-03T23:31:54;4.30;99.90
27667;DHT22;15074;50.940;5.282;2023-04-03T23:34:20;4.30;99.90
27667;DHT22;15074;50.940;5.282;2023-04-03T23:36:46;4.30;99.90
27667;DHT22;15074;50.940;5.282;2023-04-03T23:39:12;4.20;99.90
27667;DHT22;15074;50.940;5.282;2023-04-03T23:41:38;4.20;99.90
27667;DHT22;15074;50.940;5.282;2023-04-03T23:44:04;4.20;99.90
27667;DHT22;15074;50.940;5.282;2023-04-03T23:46:30;4.20;99.90
27667;DHT22;15074;50.940;5.282;2023-04-03T23:48:55;4.20;99.90
27667;DHT22;15074;50.940;5.282;2023-04-03T23:51:21;4.20;99.90
27667;DHT22;15074;50.940;5.282;2023-04-03T23:53:47;4.00;99.90
27667;DHT22;15074;50.940;5.282;2023-04-03T23:56:13;4.00;99.90
27667;DHT22;15074;50.940;5.282;2023-04-03T23:58:39;4.10;99.90
